sensor_id;sensor_type;location;lat;lon;timestamp;P1;durP1;ratioP1;P2;durP2;ratioP2
17921;SDS011;9086;50.966;3.144;2022-09-13T00:01:22;6.88;;;5.97;;
17921;SDS011;9086;50.966;3.144;2022-09-13T00:03:48;6.05;;;5.55;;
17921;SDS011;9086;50.966;3.144;2022-09-13T00:06:15;8.80;;;5.60;;
17921;SDS011;9086;50.966;3.144;2022-09-13T00:08:42;6.15;;;5.38;;
17921;SDS011;9086;50.966;3.144;2022-09-13T00:11:16;6.72;;;5.20;;
17921;SDS011;9086;50.966;3.144;2022-09-13T00:13:42;6.55;;;5.95;;
17921;SDS011;9086;50.966;3.144;2022-09-13T00:16:10;9.55;;;6.55;;
17921;SDS011;9086;50.966;3.144;2022-09-13T00:18:36;6.85;;;6.03;;
17921;SDS011;9086;50.966;3.144;2022-09-13T00:21:03;6.60;;;5.85;;
17921;SDS011;9086;50.966;3.144;2022-09-13T00:23:30;7.15;;;6.40;;
17921;SDS011;9086;50.966;3.144;2022-09-13T00:26:03;8.43;;;6.82;;
17921;SDS011;9086;50.966;3.144;2022-09-13T00:28:29;8.45;;;6.55;;
17921;SDS011;9086;50.966;3.144;2022-09-13T00:30:58;10.38;;;6.22;;
17921;SDS011;9086;50.966;3.144;2022-09-13T00:33:24;7.35;;;6.60;;
17921;SDS011;9086;50.966;3.144;2022-09-13T00:35:50;7.65;;;6.80;;
17921;SDS011;9086;50.966;3.144;2022-09-13T00:38:16;6.80;;;6.03;;
17921;SDS011;9086;50.966;3.144;2022-09-13T00:40:42;8.18;;;6.13;;
17921;SDS011;9086;50.966;3.144;2022-09-13T00:43:15;7.57;;;6.88;;
17921;SDS011;9086;50.966;3.144;2022-09-13T00:45:42;7.20;;;6.10;;
17921;SDS011;9086;50.966;3.144;2022-09-13T00:48:09;7.28;;;6.35;;
17921;SDS011;9086;50.966;3.144;2022-09-13T00:50:42;7.63;;;6.70;;
17921;SDS011;9086;50.966;3.144;2022-09-13T00:53:11;8.05;;;6.35;;
17921;SDS011;9086;50.966;3.144;2022-09-13T00:58:06;7.65;;;7.03;;
17921;SDS011;9086;50.966;3.144;2022-09-13T01:00:33;7.40;;;6.75;;
17921;SDS011;9086;50.966;3.144;2022-09-13T01:03:01;9.30;;;7.13;;
17921;SDS011;9086;50.966;3.144;2022-09-13T01:05:31;7.80;;;6.90;;
17921;SDS011;9086;50.966;3.144;2022-09-13T01:07:57;6.68;;;6.07;;
17921;SDS011;9086;50.966;3.144;2022-09-13T01:10:24;8.05;;;7.30;;
17921;SDS011;9086;50.966;3.144;2022-09-13T01:12:55;7.32;;;6.63;;
17921;SDS011;9086;50.966;3.144;2022-09-13T01:15:23;7.75;;;6.95;;
17921;SDS011;9086;50.966;3.144;2022-09-13T01:17:49;7.90;;;7.22;;
17921;SDS011;9086;50.966;3.144;2022-09-13T01:20:16;10.88;;;7.35;;
17921;SDS011;9086;50.966;3.144;2022-09-13T01:30:19;7.90;;;6.55;;
17921;SDS011;9086;50.966;3.144;2022-09-13T01:38:16;6.90;;;6.30;;
17921;SDS011;9086;50.966;3.144;2022-09-13T01:40:57;8.35;;;6.45;;
17921;SDS011;9086;50.966;3.144;2022-09-13T01:46:35;7.00;;;6.38;;
17921;SDS011;9086;50.966;3.144;2022-09-13T01:54:19;6.82;;;6.22;;
17921;SDS011;9086;50.966;3.144;2022-09-13T01:56:52;7.88;;;6.72;;
17921;SDS011;9086;50.966;3.144;2022-09-13T02:01:54;7.75;;;6.10;;
17921;SDS011;9086;50.966;3.144;2022-09-13T02:04:23;6.63;;;6.00;;
17921;SDS011;9086;50.966;3.144;2022-09-13T02:06:52;6.85;;;6.20;;
17921;SDS011;9086;50.966;3.144;2022-09-13T02:09:22;7.90;;;6.70;;
17921;SDS011;9086;50.966;3.144;2022-09-13T02:11:51;8.05;;;6.57;;
17921;SDS011;9086;50.966;3.144;2022-09-13T02:14:24;6.40;;;5.80;;
17921;SDS011;9086;50.966;3.144;2022-09-13T02:19:19;7.03;;;6.32;;
17921;SDS011;9086;50.966;3.144;2022-09-13T02:21:47;6.88;;;5.60;;
17921;SDS011;9086;50.966;3.144;2022-09-13T02:24:15;9.23;;;6.70;;
17921;SDS011;9086;50.966;3.144;2022-09-13T02:26:42;6.40;;;5.70;;
17921;SDS011;9086;50.966;3.144;2022-09-13T02:29:11;6.60;;;5.47;;
17921;SDS011;9086;50.966;3.144;2022-09-13T02:31:54;6.55;;;5.85;;
17921;SDS011;9086;50.966;3.144;2022-09-13T02:34:21;7.30;;;6.65;;
17921;SDS011;9086;50.966;3.144;2022-09-13T02:36:48;7.78;;;6.65;;
17921;SDS011;9086;50.966;3.144;2022-09-13T02:39:16;6.90;;;6.25;;
17921;SDS011;9086;50.966;3.144;2022-09-13T02:44:17;7.00;;;5.70;;
17921;SDS011;9086;50.966;3.144;2022-09-13T02:49:12;7.57;;;6.88;;
17921;SDS011;9086;50.966;3.144;2022-09-13T02:51:52;7.93;;;7.03;;
17921;SDS011;9086;50.966;3.144;2022-09-13T02:56:48;7.85;;;7.05;;
17921;SDS011;9086;50.966;3.144;2022-09-13T02:59:19;8.27;;;7.57;;
17921;SDS011;9086;50.966;3.144;2022-09-13T03:01:48;8.07;;;7.38;;
17921;SDS011;9086;50.966;3.144;2022-09-13T03:04:15;7.82;;;7.05;;
17921;SDS011;9086;50.966;3.144;2022-09-13T03:06:41;8.18;;;7.38;;
17921;SDS011;9086;50.966;3.144;2022-09-13T03:09:07;7.20;;;6.50;;
17921;SDS011;9086;50.966;3.144;2022-09-13T03:11:45;8.25;;;7.47;;
17921;SDS011;9086;50.966;3.144;2022-09-13T03:14:21;8.52;;;7.38;;
17921;SDS011;9086;50.966;3.144;2022-09-13T03:17:03;8.48;;;7.53;;
17921;SDS011;9086;50.966;3.144;2022-09-13T03:30:03;10.18;;;9.18;;
17921;SDS011;9086;50.966;3.144;2022-09-13T03:32:53;9.43;;;8.63;;
17921;SDS011;9086;50.966;3.144;2022-09-13T03:38:11;8.55;;;7.80;;
17921;SDS011;9086;50.966;3.144;2022-09-13T03:43:12;9.70;;;8.75;;
17921;SDS011;9086;50.966;3.144;2022-09-13T03:45:40;9.65;;;7.95;;
17921;SDS011;9086;50.966;3.144;2022-09-13T03:48:07;8.98;;;8.07;;
17921;SDS011;9086;50.966;3.144;2022-09-13T03:50:34;9.77;;;8.80;;
17921;SDS011;9086;50.966;3.144;2022-09-13T03:53:02;9.57;;;8.27;;
17921;SDS011;9086;50.966;3.144;2022-09-13T03:55:30;9.35;;;8.35;;
17921;SDS011;9086;50.966;3.144;2022-09-13T03:57:57;9.30;;;8.45;;
17921;SDS011;9086;50.966;3.144;2022-09-13T04:00:23;8.30;;;7.60;;
17921;SDS011;9086;50.966;3.144;2022-09-13T04:02:49;8.38;;;7.47;;
17921;SDS011;9086;50.966;3.144;2022-09-13T04:05:15;8.68;;;7.90;;
17921;SDS011;9086;50.966;3.144;2022-09-13T04:07:41;8.70;;;7.90;;
17921;SDS011;9086;50.966;3.144;2022-09-13T04:10:08;9.35;;;8.45;;
17921;SDS011;9086;50.966;3.144;2022-09-13T04:12:34;8.70;;;7.93;;
17921;SDS011;9086;50.966;3.144;2022-09-13T04:15:00;8.38;;;7.60;;
17921;SDS011;9086;50.966;3.144;2022-09-13T04:17:26;8.95;;;8.15;;
17921;SDS011;9086;50.966;3.144;2022-09-13T04:19:52;9.10;;;8.20;;
17921;SDS011;9086;50.966;3.144;2022-09-13T04:22:18;9.10;;;7.93;;
17921;SDS011;9086;50.966;3.144;2022-09-13T04:24:44;8.68;;;7.88;;
17921;SDS011;9086;50.966;3.144;2022-09-13T04:27:11;9.18;;;8.02;;
17921;SDS011;9086;50.966;3.144;2022-09-13T04:29:37;9.65;;;8.65;;
17921;SDS011;9086;50.966;3.144;2022-09-13T04:32:03;11.20;;;9.00;;
17921;SDS011;9086;50.966;3.144;2022-09-13T04:34:29;13.05;;;10.48;;
17921;SDS011;9086;50.966;3.144;2022-09-13T04:36:55;10.45;;;9.38;;
17921;SDS011;9086;50.966;3.144;2022-09-13T04:39:21;10.57;;;9.45;;
17921;SDS011;9086;50.966;3.144;2022-09-13T04:41:48;10.60;;;9.60;;
17921;SDS011;9086;50.966;3.144;2022-09-13T04:44:16;10.57;;;9.57;;
17921;SDS011;9086;50.966;3.144;2022-09-13T04:46:44;11.57;;;9.98;;
17921;SDS011;9086;50.966;3.144;2022-09-13T04:49:12;11.52;;;9.27;;
17921;SDS011;9086;50.966;3.144;2022-09-13T04:51:38;10.00;;;9.00;;
17921;SDS011;9086;50.966;3.144;2022-09-13T04:54:05;10.48;;;8.48;;
17921;SDS011;9086;50.966;3.144;2022-09-13T04:56:31;9.75;;;8.30;;
17921;SDS011;9086;50.966;3.144;2022-09-13T04:58:57;8.82;;;8.10;;
17921;SDS011;9086;50.966;3.144;2022-09-13T05:01:23;9.80;;;8.60;;
17921;SDS011;9086;50.966;3.144;2022-09-13T05:03:50;15.80;;;8.55;;
17921;SDS011;9086;50.966;3.144;2022-09-13T05:06:19;12.48;;;8.50;;
17921;SDS011;9086;50.966;3.144;2022-09-13T05:08:53;10.48;;;7.72;;
17921;SDS011;9086;50.966;3.144;2022-09-13T05:11:20;11.50;;;8.43;;
17921;SDS011;9086;50.966;3.144;2022-09-13T05:13:50;9.13;;;8.32;;
17921;SDS011;9086;50.966;3.144;2022-09-13T05:16:18;8.73;;;8.02;;
17921;SDS011;9086;50.966;3.144;2022-09-13T05:18:44;8.77;;;7.97;;
17921;SDS011;9086;50.966;3.144;2022-09-13T05:21:10;9.13;;;8.23;;
17921;SDS011;9086;50.966;3.144;2022-09-13T05:23:36;10.27;;;9.25;;
17921;SDS011;9086;50.966;3.144;2022-09-13T05:26:03;10.15;;;9.20;;
17921;SDS011;9086;50.966;3.144;2022-09-13T05:28:31;10.70;;;9.52;;
17921;SDS011;9086;50.966;3.144;2022-09-13T05:30:58;10.90;;;8.50;;
17921;SDS011;9086;50.966;3.144;2022-09-13T05:33:25;12.43;;;10.93;;
17921;SDS011;9086;50.966;3.144;2022-09-13T05:35:51;9.13;;;8.43;;
17921;SDS011;9086;50.966;3.144;2022-09-13T05:38:18;12.20;;;9.50;;
17921;SDS011;9086;50.966;3.144;2022-09-13T05:40:44;9.90;;;8.80;;
17921;SDS011;9086;50.966;3.144;2022-09-13T05:43:10;10.70;;;9.60;;
17921;SDS011;9086;50.966;3.144;2022-09-13T05:45:37;10.05;;;9.05;;
17921;SDS011;9086;50.966;3.144;2022-09-13T05:48:03;12.07;;;10.45;;
17921;SDS011;9086;50.966;3.144;2022-09-13T05:50:29;14.23;;;10.35;;
17921;SDS011;9086;50.966;3.144;2022-09-13T05:52:55;11.82;;;10.13;;
17921;SDS011;9086;50.966;3.144;2022-09-13T05:55:21;11.65;;;9.65;;
17921;SDS011;9086;50.966;3.144;2022-09-13T05:57:48;15.27;;;10.02;;
17921;SDS011;9086;50.966;3.144;2022-09-13T06:00:14;12.45;;;9.77;;
17921;SDS011;9086;50.966;3.144;2022-09-13T06:02:40;14.85;;;11.23;;
17921;SDS011;9086;50.966;3.144;2022-09-13T06:05:07;16.60;;;10.27;;
17921;SDS011;9086;50.966;3.144;2022-09-13T06:07:34;16.75;;;11.30;;
17921;SDS011;9086;50.966;3.144;2022-09-13T06:10:01;15.27;;;10.85;;
17921;SDS011;9086;50.966;3.144;2022-09-13T06:12:27;16.27;;;10.93;;
17921;SDS011;9086;50.966;3.144;2022-09-13T06:14:53;15.13;;;11.57;;
17921;SDS011;9086;50.966;3.144;2022-09-13T06:17:19;17.95;;;11.85;;
17921;SDS011;9086;50.966;3.144;2022-09-13T06:19:45;16.33;;;11.57;;
17921;SDS011;9086;50.966;3.144;2022-09-13T06:22:11;17.27;;;11.00;;
17921;SDS011;9086;50.966;3.144;2022-09-13T06:24:37;20.85;;;12.32;;
17921;SDS011;9086;50.966;3.144;2022-09-13T06:27:03;16.15;;;11.20;;
17921;SDS011;9086;50.966;3.144;2022-09-13T06:29:30;13.77;;;11.70;;
17921;SDS011;9086;50.966;3.144;2022-09-13T06:31:56;19.15;;;12.48;;
17921;SDS011;9086;50.966;3.144;2022-09-13T06:34:22;21.92;;;13.13;;
17921;SDS011;9086;50.966;3.144;2022-09-13T06:36:48;20.38;;;12.40;;
17921;SDS011;9086;50.966;3.144;2022-09-13T06:39:14;13.63;;;11.85;;
17921;SDS011;9086;50.966;3.144;2022-09-13T06:41:40;16.35;;;13.00;;
17921;SDS011;9086;50.966;3.144;2022-09-13T06:44:07;13.40;;;11.50;;
17921;SDS011;9086;50.966;3.144;2022-09-13T06:46:34;17.30;;;11.85;;
17921;SDS011;9086;50.966;3.144;2022-09-13T06:49:01;15.43;;;11.38;;
17921;SDS011;9086;50.966;3.144;2022-09-13T06:51:28;18.17;;;12.32;;
17921;SDS011;9086;50.966;3.144;2022-09-13T06:53:54;15.27;;;11.90;;
17921;SDS011;9086;50.966;3.144;2022-09-13T06:58:47;14.77;;;12.40;;
17921;SDS011;9086;50.966;3.144;2022-09-13T07:03:44;15.15;;;13.02;;
17921;SDS011;9086;50.966;3.144;2022-09-13T07:06:11;15.30;;;13.55;;
17921;SDS011;9086;50.966;3.144;2022-09-13T07:08:38;15.45;;;13.50;;
17921;SDS011;9086;50.966;3.144;2022-09-13T07:11:05;15.82;;;13.70;;
17921;SDS011;9086;50.966;3.144;2022-09-13T07:13:31;16.92;;;15.13;;
17921;SDS011;9086;50.966;3.144;2022-09-13T07:15:59;17.70;;;14.63;;
17921;SDS011;9086;50.966;3.144;2022-09-13T07:18:25;19.67;;;13.88;;
17921;SDS011;9086;50.966;3.144;2022-09-13T07:20:52;24.13;;;15.55;;
17921;SDS011;9086;50.966;3.144;2022-09-13T07:23:18;21.73;;;15.50;;
17921;SDS011;9086;50.966;3.144;2022-09-13T07:25:52;21.65;;;14.30;;
17921;SDS011;9086;50.966;3.144;2022-09-13T07:28:18;21.13;;;15.90;;
17921;SDS011;9086;50.966;3.144;2022-09-13T07:30:44;23.65;;;17.20;;
17921;SDS011;9086;50.966;3.144;2022-09-13T07:33:10;19.85;;;15.40;;
17921;SDS011;9086;50.966;3.144;2022-09-13T07:35:36;29.00;;;16.10;;
17921;SDS011;9086;50.966;3.144;2022-09-13T07:38:03;23.58;;;16.83;;
17921;SDS011;9086;50.966;3.144;2022-09-13T07:40:29;34.95;;;18.20;;
17921;SDS011;9086;50.966;3.144;2022-09-13T07:42:57;26.98;;;18.95;;
17921;SDS011;9086;50.966;3.144;2022-09-13T07:45:23;21.83;;;17.10;;
17921;SDS011;9086;50.966;3.144;2022-09-13T07:47:49;21.27;;;18.13;;
17921;SDS011;9086;50.966;3.144;2022-09-13T07:50:17;31.58;;;19.15;;
17921;SDS011;9086;50.966;3.144;2022-09-13T07:52:43;26.45;;;17.88;;
17921;SDS011;9086;50.966;3.144;2022-09-13T07:55:09;26.98;;;18.63;;
17921;SDS011;9086;50.966;3.144;2022-09-13T07:57:35;22.65;;;15.75;;
17921;SDS011;9086;50.966;3.144;2022-09-13T08:00:01;26.42;;;16.38;;
17921;SDS011;9086;50.966;3.144;2022-09-13T08:02:29;21.55;;;15.98;;
17921;SDS011;9086;50.966;3.144;2022-09-13T08:04:55;17.65;;;15.70;;
17921;SDS011;9086;50.966;3.144;2022-09-13T08:07:21;25.10;;;15.82;;
17921;SDS011;9086;50.966;3.144;2022-09-13T08:09:47;19.38;;;14.93;;
17921;SDS011;9086;50.966;3.144;2022-09-13T08:12:14;16.88;;;14.93;;
17921;SDS011;9086;50.966;3.144;2022-09-13T08:14:40;18.30;;;14.93;;
17921;SDS011;9086;50.966;3.144;2022-09-13T08:17:06;16.70;;;14.73;;
17921;SDS011;9086;50.966;3.144;2022-09-13T08:19:32;20.60;;;15.35;;
17921;SDS011;9086;50.966;3.144;2022-09-13T08:21:58;16.35;;;14.40;;
17921;SDS011;9086;50.966;3.144;2022-09-13T08:24:24;16.08;;;14.63;;
17921;SDS011;9086;50.966;3.144;2022-09-13T08:26:52;16.02;;;14.32;;
17921;SDS011;9086;50.966;3.144;2022-09-13T08:29:19;16.15;;;13.90;;
17921;SDS011;9086;50.966;3.144;2022-09-13T08:31:45;15.15;;;13.85;;
17921;SDS011;9086;50.966;3.144;2022-09-13T08:34:11;14.50;;;13.05;;
17921;SDS011;9086;50.966;3.144;2022-09-13T08:36:39;15.63;;;14.13;;
17921;SDS011;9086;50.966;3.144;2022-09-13T08:39:05;14.85;;;13.43;;
17921;SDS011;9086;50.966;3.144;2022-09-13T08:44:43;16.42;;;14.63;;
17921;SDS011;9086;50.966;3.144;2022-09-13T08:49:40;18.23;;;14.32;;
17921;SDS011;9086;50.966;3.144;2022-09-13T08:52:15;18.45;;;16.25;;
17921;SDS011;9086;50.966;3.144;2022-09-13T08:54:45;18.75;;;16.90;;
17921;SDS011;9086;50.966;3.144;2022-09-13T09:07:11;17.92;;;15.88;;
17921;SDS011;9086;50.966;3.144;2022-09-13T09:09:43;17.45;;;15.75;;
17921;SDS011;9086;50.966;3.144;2022-09-13T09:12:19;16.38;;;14.68;;
17921;SDS011;9086;50.966;3.144;2022-09-13T09:14:53;19.23;;;15.88;;
17921;SDS011;9086;50.966;3.144;2022-09-13T09:17:21;21.33;;;15.60;;
17921;SDS011;9086;50.966;3.144;2022-09-13T09:19:49;19.40;;;15.90;;
17921;SDS011;9086;50.966;3.144;2022-09-13T09:22:20;17.17;;;15.48;;
17921;SDS011;9086;50.966;3.144;2022-09-13T09:24:53;22.45;;;15.77;;
17921;SDS011;9086;50.966;3.144;2022-09-13T09:27:19;17.70;;;15.88;;
17921;SDS011;9086;50.966;3.144;2022-09-13T09:29:46;17.63;;;14.52;;
17921;SDS011;9086;50.966;3.144;2022-09-13T09:32:24;17.42;;;14.32;;
17921;SDS011;9086;50.966;3.144;2022-09-13T09:37:33;16.42;;;13.45;;
17921;SDS011;9086;50.966;3.144;2022-09-13T09:40:02;15.43;;;13.88;;
17921;SDS011;9086;50.966;3.144;2022-09-13T09:42:42;14.35;;;13.15;;
17921;SDS011;9086;50.966;3.144;2022-09-13T09:45:25;16.20;;;13.07;;
17921;SDS011;9086;50.966;3.144;2022-09-13T09:47:52;13.70;;;12.38;;
17921;SDS011;9086;50.966;3.144;2022-09-13T09:50:23;13.93;;;12.63;;
17921;SDS011;9086;50.966;3.144;2022-09-13T09:55:27;12.75;;;11.48;;
17921;SDS011;9086;50.966;3.144;2022-09-13T09:58:00;12.23;;;11.13;;
17921;SDS011;9086;50.966;3.144;2022-09-13T10:00:29;11.63;;;10.60;;
17921;SDS011;9086;50.966;3.144;2022-09-13T10:02:57;10.65;;;9.75;;
17921;SDS011;9086;50.966;3.144;2022-09-13T10:05:24;11.25;;;10.25;;
17921;SDS011;9086;50.966;3.144;2022-09-13T10:07:52;11.63;;;10.25;;
17921;SDS011;9086;50.966;3.144;2022-09-13T10:12:44;13.40;;;12.00;;
17921;SDS011;9086;50.966;3.144;2022-09-13T10:17:41;12.48;;;11.38;;
17921;SDS011;9086;50.966;3.144;2022-09-13T10:22:40;13.43;;;10.98;;
17921;SDS011;9086;50.966;3.144;2022-09-13T10:27:40;14.00;;;12.55;;
17921;SDS011;9086;50.966;3.144;2022-09-13T10:30:16;14.18;;;12.75;;
17921;SDS011;9086;50.966;3.144;2022-09-13T10:32:53;13.90;;;12.43;;
17921;SDS011;9086;50.966;3.144;2022-09-13T10:35:20;13.52;;;12.15;;
17921;SDS011;9086;50.966;3.144;2022-09-13T10:37:46;13.32;;;12.02;;
17921;SDS011;9086;50.966;3.144;2022-09-13T10:42:41;13.90;;;12.60;;
17921;SDS011;9086;50.966;3.144;2022-09-13T10:45:19;13.80;;;12.20;;
17921;SDS011;9086;50.966;3.144;2022-09-13T10:47:47;13.02;;;11.75;;
17921;SDS011;9086;50.966;3.144;2022-09-13T10:50:20;17.67;;;12.85;;
17921;SDS011;9086;50.966;3.144;2022-09-13T11:00:15;15.30;;;13.30;;
17921;SDS011;9086;50.966;3.144;2022-09-13T11:05:31;14.07;;;12.73;;
17921;SDS011;9086;50.966;3.144;2022-09-13T11:13:10;14.55;;;12.35;;
17921;SDS011;9086;50.966;3.144;2022-09-13T11:23:29;13.70;;;12.40;;
17921;SDS011;9086;50.966;3.144;2022-09-13T11:39:11;14.90;;;12.25;;
17921;SDS011;9086;50.966;3.144;2022-09-13T11:58:49;12.27;;;11.13;;
17921;SDS011;9086;50.966;3.144;2022-09-13T12:01:18;12.15;;;11.13;;
17921;SDS011;9086;50.966;3.144;2022-09-13T12:04:00;13.05;;;11.82;;
17921;SDS011;9086;50.966;3.144;2022-09-13T12:06:29;13.48;;;12.15;;
17921;SDS011;9086;50.966;3.144;2022-09-13T12:09:04;14.05;;;12.75;;
17921;SDS011;9086;50.966;3.144;2022-09-13T12:11:33;13.05;;;11.80;;
17921;SDS011;9086;50.966;3.144;2022-09-13T12:14:04;12.55;;;11.43;;
17921;SDS011;9086;50.966;3.144;2022-09-13T12:16:45;13.25;;;11.95;;
17921;SDS011;9086;50.966;3.144;2022-09-13T12:19:35;15.30;;;14.07;;
17921;SDS011;9086;50.966;3.144;2022-09-13T12:22:05;16.30;;;15.00;;
17921;SDS011;9086;50.966;3.144;2022-09-13T12:28:02;17.13;;;15.63;;
17921;SDS011;9086;50.966;3.144;2022-09-13T12:32:36;14.63;;;13.40;;
17921;SDS011;9086;50.966;3.144;2022-09-13T12:43:22;12.73;;;11.73;;
17921;SDS011;9086;50.966;3.144;2022-09-13T12:50:40;12.40;;;11.20;;
17921;SDS011;9086;50.966;3.144;2022-09-13T13:01:07;10.35;;;9.40;;
17921;SDS011;9086;50.966;3.144;2022-09-13T13:03:30;9.65;;;8.95;;
17921;SDS011;9086;50.966;3.144;2022-09-13T13:06:09;11.25;;;10.18;;
17921;SDS011;9086;50.966;3.144;2022-09-13T13:08:35;11.07;;;10.20;;
17921;SDS011;9086;50.966;3.144;2022-09-13T13:11:04;11.27;;;10.30;;
17921;SDS011;9086;50.966;3.144;2022-09-13T13:16:34;12.18;;;11.18;;
17921;SDS011;9086;50.966;3.144;2022-09-13T13:21:46;11.88;;;10.77;;
17921;SDS011;9086;50.966;3.144;2022-09-13T13:26:51;12.75;;;11.85;;
17921;SDS011;9086;50.966;3.144;2022-09-13T13:29:19;12.85;;;11.75;;
17921;SDS011;9086;50.966;3.144;2022-09-13T13:34:26;12.68;;;11.65;;
17921;SDS011;9086;50.966;3.144;2022-09-13T13:36:56;11.85;;;10.85;;
17921;SDS011;9086;50.966;3.144;2022-09-13T13:46:54;12.10;;;10.48;;
17921;SDS011;9086;50.966;3.144;2022-09-13T13:59:45;9.57;;;8.77;;
17921;SDS011;9086;50.966;3.144;2022-09-13T14:02:12;11.55;;;10.38;;
17921;SDS011;9086;50.966;3.144;2022-09-13T14:14:55;10.77;;;9.90;;
17921;SDS011;9086;50.966;3.144;2022-09-13T14:20:09;10.88;;;9.88;;
17921;SDS011;9086;50.966;3.144;2022-09-13T14:22:36;11.52;;;10.52;;
17921;SDS011;9086;50.966;3.144;2022-09-13T14:25:21;11.93;;;9.35;;
17921;SDS011;9086;50.966;3.144;2022-09-13T14:27:47;9.90;;;9.07;;
17921;SDS011;9086;50.966;3.144;2022-09-13T14:30:21;9.70;;;8.85;;
17921;SDS011;9086;50.966;3.144;2022-09-13T14:32:51;9.68;;;8.82;;
17921;SDS011;9086;50.966;3.144;2022-09-13T14:35:29;9.90;;;8.65;;
17921;SDS011;9086;50.966;3.144;2022-09-13T14:37:56;9.32;;;8.63;;
17921;SDS011;9086;50.966;3.144;2022-09-13T14:40:34;10.38;;;9.27;;
17921;SDS011;9086;50.966;3.144;2022-09-13T14:43:04;9.55;;;8.68;;
17921;SDS011;9086;50.966;3.144;2022-09-13T14:45:38;10.95;;;9.93;;
17921;SDS011;9086;50.966;3.144;2022-09-13T14:50:31;11.98;;;8.70;;
17921;SDS011;9086;50.966;3.144;2022-09-13T14:53:00;9.70;;;8.77;;
17921;SDS011;9086;50.966;3.144;2022-09-13T14:55:28;11.02;;;10.05;;
17921;SDS011;9086;50.966;3.144;2022-09-13T14:57:59;11.00;;;10.07;;
17921;SDS011;9086;50.966;3.144;2022-09-13T15:00:28;10.23;;;9.35;;
17921;SDS011;9086;50.966;3.144;2022-09-13T15:02:56;9.35;;;8.40;;
17921;SDS011;9086;50.966;3.144;2022-09-13T15:05:25;9.93;;;8.90;;
17921;SDS011;9086;50.966;3.144;2022-09-13T15:07:51;10.50;;;9.48;;
17921;SDS011;9086;50.966;3.144;2022-09-13T15:12:53;11.23;;;9.13;;
17921;SDS011;9086;50.966;3.144;2022-09-13T15:15:25;8.90;;;7.82;;
17921;SDS011;9086;50.966;3.144;2022-09-13T15:20:18;9.50;;;8.50;;
17921;SDS011;9086;50.966;3.144;2022-09-13T15:22:44;11.57;;;8.95;;
17921;SDS011;9086;50.966;3.144;2022-09-13T15:25:18;10.38;;;7.78;;
17921;SDS011;9086;50.966;3.144;2022-09-13T15:27:46;9.80;;;8.10;;
17921;SDS011;9086;50.966;3.144;2022-09-13T15:30:19;8.98;;;7.22;;
17921;SDS011;9086;50.966;3.144;2022-09-13T15:32:46;7.97;;;6.82;;
17921;SDS011;9086;50.966;3.144;2022-09-13T15:35:34;9.13;;;6.88;;
17921;SDS011;9086;50.966;3.144;2022-09-13T15:38:01;7.40;;;6.65;;
17921;SDS011;9086;50.966;3.144;2022-09-13T15:40:30;7.97;;;6.95;;
17921;SDS011;9086;50.966;3.144;2022-09-13T15:43:05;8.82;;;7.25;;
17921;SDS011;9086;50.966;3.144;2022-09-13T15:45:31;9.77;;;7.38;;
17921;SDS011;9086;50.966;3.144;2022-09-13T15:47:57;8.40;;;6.43;;
17921;SDS011;9086;50.966;3.144;2022-09-13T15:50:25;12.00;;;6.85;;
17921;SDS011;9086;50.966;3.144;2022-09-13T15:52:52;10.90;;;7.05;;
17921;SDS011;9086;50.966;3.144;2022-09-13T15:55:19;8.43;;;6.63;;
17921;SDS011;9086;50.966;3.144;2022-09-13T15:57:45;7.47;;;5.90;;
17921;SDS011;9086;50.966;3.144;2022-09-13T16:00:14;6.20;;;5.60;;
17921;SDS011;9086;50.966;3.144;2022-09-13T16:02:40;8.45;;;6.13;;
17921;SDS011;9086;50.966;3.144;2022-09-13T16:05:06;8.32;;;7.30;;
17921;SDS011;9086;50.966;3.144;2022-09-13T16:07:32;7.05;;;6.32;;
17921;SDS011;9086;50.966;3.144;2022-09-13T16:09:59;8.93;;;7.20;;
17921;SDS011;9086;50.966;3.144;2022-09-13T16:12:25;9.30;;;7.80;;
17921;SDS011;9086;50.966;3.144;2022-09-13T16:14:51;8.52;;;7.72;;
17921;SDS011;9086;50.966;3.144;2022-09-13T16:17:22;8.18;;;7.38;;
17921;SDS011;9086;50.966;3.144;2022-09-13T16:19:48;9.68;;;7.15;;
17921;SDS011;9086;50.966;3.144;2022-09-13T16:22:14;10.98;;;7.38;;
17921;SDS011;9086;50.966;3.144;2022-09-13T16:24:41;7.70;;;6.75;;
17921;SDS011;9086;50.966;3.144;2022-09-13T16:27:08;8.60;;;7.30;;
17921;SDS011;9086;50.966;3.144;2022-09-13T16:29:34;7.13;;;6.18;;
17921;SDS011;9086;50.966;3.144;2022-09-13T16:32:00;8.20;;;7.32;;
17921;SDS011;9086;50.966;3.144;2022-09-13T16:34:26;8.65;;;7.80;;
17921;SDS011;9086;50.966;3.144;2022-09-13T16:36:52;11.38;;;8.27;;
17921;SDS011;9086;50.966;3.144;2022-09-13T16:39:19;9.73;;;7.47;;
17921;SDS011;9086;50.966;3.144;2022-09-13T16:41:45;10.63;;;7.60;;
17921;SDS011;9086;50.966;3.144;2022-09-13T16:44:11;10.75;;;7.82;;
17921;SDS011;9086;50.966;3.144;2022-09-13T16:46:38;8.27;;;7.57;;
17921;SDS011;9086;50.966;3.144;2022-09-13T16:49:04;10.25;;;7.93;;
17921;SDS011;9086;50.966;3.144;2022-09-13T16:51:31;8.27;;;7.50;;
17921;SDS011;9086;50.966;3.144;2022-09-13T16:53:57;9.95;;;7.05;;
17921;SDS011;9086;50.966;3.144;2022-09-13T16:56:23;10.10;;;8.10;;
17921;SDS011;9086;50.966;3.144;2022-09-13T16:58:50;9.23;;;8.00;;
17921;SDS011;9086;50.966;3.144;2022-09-13T17:01:20;8.20;;;7.35;;
17921;SDS011;9086;50.966;3.144;2022-09-13T17:03:46;10.40;;;8.50;;
17921;SDS011;9086;50.966;3.144;2022-09-13T17:06:14;12.93;;;8.27;;
17921;SDS011;9086;50.966;3.144;2022-09-13T17:08:41;8.82;;;8.00;;
17921;SDS011;9086;50.966;3.144;2022-09-13T17:11:11;8.52;;;7.82;;
17921;SDS011;9086;50.966;3.144;2022-09-13T17:13:38;9.23;;;8.35;;
17921;SDS011;9086;50.966;3.144;2022-09-13T17:16:05;9.65;;;8.65;;
17921;SDS011;9086;50.966;3.144;2022-09-13T17:18:32;8.32;;;7.53;;
17921;SDS011;9086;50.966;3.144;2022-09-13T17:20:58;8.50;;;7.72;;
17921;SDS011;9086;50.966;3.144;2022-09-13T17:23:25;7.18;;;6.68;;
17921;SDS011;9086;50.966;3.144;2022-09-13T17:25:52;8.43;;;7.55;;
17921;SDS011;9086;50.966;3.144;2022-09-13T17:28:18;9.02;;;7.63;;
17921;SDS011;9086;50.966;3.144;2022-09-13T17:30:45;13.18;;;8.40;;
17921;SDS011;9086;50.966;3.144;2022-09-13T17:33:11;10.60;;;9.45;;
17921;SDS011;9086;50.966;3.144;2022-09-13T17:35:37;10.82;;;9.82;;
17921;SDS011;9086;50.966;3.144;2022-09-13T17:38:04;11.25;;;10.18;;
17921;SDS011;9086;50.966;3.144;2022-09-13T17:40:30;12.57;;;11.57;;
17921;SDS011;9086;50.966;3.144;2022-09-13T17:42:57;13.32;;;12.18;;
17921;SDS011;9086;50.966;3.144;2022-09-13T17:45:23;14.70;;;13.35;;
17921;SDS011;9086;50.966;3.144;2022-09-13T17:47:53;16.85;;;15.65;;
17921;SDS011;9086;50.966;3.144;2022-09-13T17:50:19;22.25;;;20.70;;
17921;SDS011;9086;50.966;3.144;2022-09-13T17:52:45;29.50;;;27.67;;
17921;SDS011;9086;50.966;3.144;2022-09-13T17:55:11;62.88;;;60.05;;
17921;SDS011;9086;50.966;3.144;2022-09-13T17:57:37;79.25;;;75.72;;
17921;SDS011;9086;50.966;3.144;2022-09-13T18:00:04;85.85;;;82.43;;
17921;SDS011;9086;50.966;3.144;2022-09-13T18:02:34;84.28;;;80.70;;
17921;SDS011;9086;50.966;3.144;2022-09-13T18:05:00;99.25;;;95.20;;
17921;SDS011;9086;50.966;3.144;2022-09-13T18:07:26;116.05;;;111.65;;
17921;SDS011;9086;50.966;3.144;2022-09-13T18:09:52;137.45;;;132.02;;
17921;SDS011;9086;50.966;3.144;2022-09-13T18:12:18;153.68;;;148.02;;
17921;SDS011;9086;50.966;3.144;2022-09-13T18:14:45;162.10;;;156.55;;
17921;SDS011;9086;50.966;3.144;2022-09-13T18:17:11;167.45;;;161.45;;
17921;SDS011;9086;50.966;3.144;2022-09-13T18:19:38;172.75;;;166.80;;
17921;SDS011;9086;50.966;3.144;2022-09-13T18:22:04;154.75;;;149.25;;
17921;SDS011;9086;50.966;3.144;2022-09-13T18:24:30;155.25;;;149.85;;
17921;SDS011;9086;50.966;3.144;2022-09-13T18:26:57;137.70;;;132.82;;
17921;SDS011;9086;50.966;3.144;2022-09-13T18:29:24;150.48;;;145.00;;
17921;SDS011;9086;50.966;3.144;2022-09-13T18:31:52;168.18;;;162.23;;